Time;durP1;ratioP1;P1;durP2;ratioP2;P2;SDS_P1;SDS_P2;PMS_P1;PMS_P2;Temp;Humidity;BMP_temperature;BMP_pressure;BME280_temperature;BME280_humidity;BME280_pressure;Samples;Min_cycle;Max_cycle;Signal;HPM_P1;HPM_P2
2023/04/03 00:01:10;;;;;;;1.38;0.30;;;1.20;99.90;;;;;;5024847;28;20508;-45
2023/04/03 00:03:36;;;;;;;5.55;0.43;;;-0.30;99.90;;;;;;5024333;28;20452;-46
2023/04/03 00:06:03;;;;;;;2.22;0.30;;;-0.20;99.90;;;;;;5025344;28;20048;-48
2023/04/03 00:08:30;;;;;;;4.40;1.48;;;-0.30;99.90;;;;;;5025990;28;20123;-45
2023/04/03 00:10:56;;;;;;;3.45;0.90;;;-0.30;99.90;;;;;;5025579;28;20041;-45
2023/04/03 00:13:23;;;;;;;2.47;0.30;;;-0.40;99.90;;;;;;5022065;28;20033;-45
2023/04/03 00:15:48;;;;;;;1.75;0.22;;;-0.40;99.90;;;;;;5024146;28;20457;-45
2023/04/03 00:18:14;;;;;;;1.90;0.40;;;-0.40;99.90;;;;;;5025769;28;20120;-45
2023/04/03 00:20:40;;;;;;;1.80;0.38;;;0.40;99.90;;;;;;5025740;28;20144;-47
2023/04/03 00:23:06;;;;;;;1.55;0.32;;;-0.50;99.90;;;;;;5025313;28;20076;-49
2023/04/03 00:25:32;;;;;;;2.42;0.40;;;-0.50;99.90;;;;;;5024437;28;20133;-46
2023/04/03 00:27:58;;;;;;;2.97;0.45;;;-0.60;99.90;;;;;;5024862;28;21051;-44
2023/04/03 00:30:24;;;;;;;2.25;0.45;;;-0.50;99.90;;;;;;5022857;28;20140;-45
2023/04/03 00:32:50;;;;;;;3.60;0.30;;;-0.40;99.90;;;;;;5025116;28;20040;-44
2023/04/03 00:35:17;;;;;;;1.27;0.32;;;-0.60;99.90;;;;;;5025341;28;20136;-46
2023/04/03 00:37:43;;;;;;;1.83;0.40;;;0.60;99.90;;;;;;5025419;28;20045;-45
2023/04/03 00:40:11;;;;;;;2.60;0.30;;;-0.60;99.90;;;;;;5023770;28;20769;-48
2023/04/03 00:42:37;;;;;;;7.13;2.70;;;-0.70;99.90;;;;;;5025190;28;20056;-45
2023/04/03 00:45:03;;;;;;;5.53;1.08;;;-0.70;99.90;;;;;;5023001;28;20045;-45
2023/04/03 00:47:30;;;;;;;3.20;0.60;;;-0.70;99.90;;;;;;5025313;28;20057;-45
2023/04/03 00:49:57;;;;;;;2.97;0.30;;;-0.80;99.90;;;;;;5021290;28;20052;-45
2023/04/03 00:52:28;;;;;;;3.00;0.88;;;-0.80;99.90;;;;;;5024909;28;20057;-45
2023/04/03 00:54:57;;;;;;;1.95;0.50;;;-0.90;99.90;;;;;;5021574;28;20077;-46
2023/04/03 00:57:24;;;;;;;1.80;0.35;;;-0.90;99.90;;;;;;5022897;28;20049;-45
2023/04/03 00:59:55;;;;;;;2.15;0.65;;;-0.90;99.90;;;;;;5023415;28;20045;-45
2023/04/03 01:02:20;;;;;;;1.45;0.47;;;-0.90;99.90;;;;;;5024124;28;20534;-45
2023/04/03 01:04:47;;;;;;;4.00;0.52;;;-1.00;99.90;;;;;;5020878;28;20050;-45
2023/04/03 01:07:17;;;;;;;3.83;1.00;;;-1.00;99.90;;;;;;5024957;28;20072;-45
2023/04/03 01:09:44;;;;;;;3.72;0.73;;;-0.90;99.90;;;;;;5022623;28;20037;-46
2023/04/03 01:12:29;;;;;;;3.58;0.40;;;-0.90;99.90;;;;;;5023797;28;21779;-45
2023/04/03 01:14:58;;;;;;;3.58;0.60;;;-1.10;99.90;;;;;;5024037;28;20459;-47
2023/04/03 01:17:38;;;;;;;2.80;0.88;;;-1.10;99.90;;;;;;5025704;28;20888;-47
2023/04/03 01:20:22;;;;;;;5.07;0.75;;;-0.10;99.90;;;;;;5028439;28;20650;-47
2023/04/03 01:23:09;;;;;;;3.03;0.70;;;-1.10;99.90;;;;;;5024856;28;20183;-46
2023/04/03 01:25:55;;;;;;;4.03;0.60;;;-0.90;99.90;;;;;;5020877;28;20057;-45
2023/04/03 01:28:27;;;;;;;3.45;1.20;;;-0.90;99.90;;;;;;5027968;28;20041;-45
2023/04/03 01:31:02;;;;;;;3.75;0.73;;;-0.90;99.90;;;;;;5027918;28;20057;-45
2023/04/03 01:33:28;;;;;;;4.53;0.65;;;-0.90;99.90;;;;;;5028535;28;20045;-45
2023/04/03 01:35:54;;;;;;;4.63;0.73;;;0.00;99.90;;;;;;5026689;28;20038;-47
2023/04/03 01:38:20;;;;;;;2.25;0.60;;;-0.90;99.90;;;;;;5029085;28;20047;-45
2023/04/03 01:40:46;;;;;;;4.35;0.77;;;-1.00;99.90;;;;;;5028811;28;20049;-45
2023/04/03 01:43:11;;;;;;;5.65;1.05;;;-1.00;99.90;;;;;;5028667;28;20103;-43
2023/04/03 01:45:37;;;;;;;3.38;0.80;;;-0.80;99.90;;;;;;5028726;28;20045;-43
2023/04/03 01:48:03;;;;;;;3.72;0.77;;;-1.00;99.90;;;;;;5028040;28;20053;-44
2023/04/03 01:50:29;;;;;;;5.03;0.80;;;-1.20;99.90;;;;;;5028326;28;20049;-46
2023/04/03 01:52:55;;;;;;;4.82;0.90;;;-1.10;99.90;;;;;;5027053;28;20041;-45
2023/04/03 01:55:20;;;;;;;5.43;0.88;;;-1.00;99.90;;;;;;5027245;28;20095;-44
2023/04/03 01:57:46;;;;;;;6.32;1.77;;;-1.10;99.90;;;;;;5028177;28;20136;-45
2023/04/03 02:00:12;;;;;;;6.40;1.13;;;-1.10;99.90;;;;;;5028283;28;20045;-45
2023/04/03 02:02:38;;;;;;;2.78;0.85;;;-1.00;99.90;;;;;;5028103;28;20394;-45
2023/04/03 02:05:04;;;;;;;3.13;1.02;;;-1.10;99.90;;;;;;5025477;28;20094;-44
2023/04/03 02:07:30;;;;;;;5.53;1.58;;;-1.10;99.90;;;;;;5028173;28;20045;-45
2023/04/03 02:09:56;;;;;;;4.93;1.52;;;-1.20;99.90;;;;;;5028076;28;20045;-45
2023/04/03 02:12:21;;;;;;;5.03;1.17;;;-1.20;99.90;;;;;;5027704;28;20049;-44
2023/04/03 02:14:47;;;;;;;4.32;1.20;;;-1.20;99.90;;;;;;5028094;28;20041;-46
2023/04/03 02:17:13;;;;;;;3.60;0.93;;;-1.30;99.90;;;;;;5025051;28;20049;-45
2023/04/03 02:19:38;;;;;;;6.60;1.08;;;-1.30;99.90;;;;;;5027439;28;20049;-47
2023/04/03 02:22:05;;;;;;;4.78;0.98;;;-1.30;99.90;;;;;;5027470;28;20053;-44
2023/04/03 02:24:32;;;;;;;4.80;1.25;;;-1.40;99.90;;;;;;5026440;28;20053;-44
2023/04/03 02:26:57;;;;;;;4.45;1.60;;;-1.40;99.90;;;;;;5027970;28;20049;-46
2023/04/03 02:29:23;;;;;;;3.65;0.82;;;-1.40;99.90;;;;;;5027597;28;20072;-45
2023/04/03 02:31:50;;;;;;;3.38;1.10;;;-1.40;99.90;;;;;;5025418;28;20099;-46
2023/04/03 02:34:16;;;;;;;3.97;1.25;;;-1.40;99.90;;;;;;5027879;28;20045;-45
2023/04/03 02:36:41;;;;;;;4.43;0.95;;;-1.50;99.90;;;;;;5026042;28;20046;-44
2023/04/03 02:39:07;;;;;;;3.55;1.02;;;-1.50;99.90;;;;;;5027614;28;20140;-45
2023/04/03 02:41:35;;;;;;;9.32;1.40;;;-1.50;99.90;;;;;;5025909;28;20042;-45
2023/04/03 02:44:05;;;;;;;5.13;1.00;;;-1.50;99.90;;;;;;5025888;28;20048;-45
2023/04/03 02:46:32;;;;;;;6.07;1.20;;;-1.40;99.90;;;;;;5025678;28;20092;-44
2023/04/03 02:48:57;;;;;;;2.65;1.00;;;-1.50;99.90;;;;;;5027526;28;20175;-44
2023/04/03 02:51:23;;;;;;;5.25;1.58;;;-1.50;99.90;;;;;;5025349;28;20080;-44
2023/04/03 02:53:50;;;;;;;6.78;1.23;;;-1.50;99.90;;;;;;5027332;28;20148;-47
2023/04/03 02:56:17;;;;;;;8.05;1.05;;;-1.50;99.90;;;;;;5025256;28;20398;-45
2023/04/03 02:58:42;;;;;;;5.32;1.63;;;-1.50;99.90;;;;;;5025051;28;20052;-44
2023/04/03 03:01:08;;;;;;;4.28;1.27;;;-1.60;99.90;;;;;;5026139;28;20046;-45
2023/04/03 03:03:34;;;;;;;3.60;0.95;;;-1.50;99.90;;;;;;5026535;28;20131;-44
2023/04/03 03:06:08;;;;;;;7.93;0.88;;;-1.50;99.90;;;;;;5027077;28;20041;-46
2023/04/03 03:08:34;;;;;;;5.05;1.00;;;-1.70;99.90;;;;;;5021287;28;20049;-45
2023/04/03 03:11:00;;;;;;;8.15;1.45;;;-1.70;99.90;;;;;;5022992;28;20049;-44
2023/04/03 03:13:26;;;;;;;5.95;1.60;;;-1.70;99.90;;;;;;5026798;28;20041;-44
2023/04/03 03:15:52;;;;;;;6.97;1.30;;;-1.80;99.90;;;;;;5027347;28;20842;-45
2023/04/03 03:18:17;;;;;;;4.55;1.25;;;-0.70;99.90;;;;;;5026717;28;20279;-44
2023/04/03 03:20:44;;;;;;;3.50;1.17;;;-1.90;99.90;;;;;;5026760;28;20073;-44
2023/04/03 03:23:10;;;;;;;5.55;1.10;;;-1.90;99.90;;;;;;5027114;28;20079;-44
2023/04/03 03:25:40;;;;;;;6.13;1.15;;;-1.90;99.90;;;;;;5023302;28;20081;-44
2023/04/03 03:28:06;;;;;;;4.05;1.00;;;-1.90;99.90;;;;;;5027408;28;20046;-45
2023/04/03 03:30:31;;;;;;;4.07;1.55;;;-1.90;99.90;;;;;;5026385;28;20549;-45
2023/04/03 03:32:57;;;;;;;7.95;1.25;;;-1.90;99.90;;;;;;5026876;28;20081;-45
2023/04/03 03:35:23;;;;;;;5.85;1.40;;;-1.90;99.90;;;;;;5026757;28;20037;-44
2023/04/03 03:37:48;;;;;;;4.43;1.30;;;-1.70;99.90;;;;;;5024213;28;20103;-44
2023/04/03 03:40:14;;;;;;;5.22;1.55;;;-1.90;99.90;;;;;;5024786;28;20613;-44
2023/04/03 03:42:40;;;;;;;9.45;1.60;;;-1.90;99.90;;;;;;5027014;28;20069;-45
2023/04/03 03:45:06;;;;;;;8.02;1.55;;;-1.90;99.90;;;;;;5027229;28;20042;-45
2023/04/03 03:47:32;;;;;;;4.65;1.25;;;-2.00;99.90;;;;;;5026515;28;20077;-45
2023/04/03 03:49:58;;;;;;;7.40;1.25;;;-2.00;99.90;;;;;;5024329;28;20076;-44
2023/04/03 03:52:23;;;;;;;5.45;1.73;;;-2.00;99.90;;;;;;5026829;28;20049;-44
2023/04/03 03:54:49;;;;;;;6.85;1.60;;;-2.00;99.90;;;;;;5025293;28;20053;-44
2023/04/03 03:57:15;;;;;;;7.30;1.77;;;-2.00;99.90;;;;;;5026686;28;20044;-44
2023/04/03 03:59:41;;;;;;;10.52;1.70;;;-2.00;99.90;;;;;;5026576;28;20053;-43
2023/04/03 04:02:07;;;;;;;10.57;2.20;;;-2.00;99.90;;;;;;5025077;28;20041;-48
2023/04/03 04:04:33;;;;;;;8.82;3.03;;;-1.90;99.90;;;;;;5022220;28;20519;-44
2023/04/03 04:07:00;;;;;;;5.53;2.40;;;-1.90;99.90;;;;;;5026551;28;20041;-45
2023/04/03 04:09:26;;;;;;;7.07;1.80;;;-1.80;99.90;;;;;;5024912;28;20785;-45
2023/04/03 04:11:52;;;;;;;7.57;2.35;;;-1.80;99.90;;;;;;5026030;28;20167;-44
2023/04/03 04:14:20;;;;;;;11.85;3.15;;;-1.80;99.90;;;;;;5026245;28;20277;-44
2023/04/03 04:16:46;;;;;;;10.05;2.22;;;-1.90;99.90;;;;;;5023818;28;20072;-47
2023/04/03 04:19:12;;;;;;;6.63;2.15;;;-1.60;99.90;;;;;;5022071;28;20161;-44
2023/04/03 04:21:39;;;;;;;13.20;2.13;;;-1.80;99.90;;;;;;5025370;28;20346;-44
2023/04/03 04:24:05;;;;;;;8.23;2.20;;;-1.80;99.90;;;;;;5023746;28;20490;-46
2023/04/03 04:26:31;;;;;;;10.57;2.70;;;-1.90;99.90;;;;;;5024747;28;20128;-44
2023/04/03 04:28:56;;;;;;;5.50;2.17;;;-1.60;99.90;;;;;;5024226;28;20188;-45
2023/04/03 04:31:22;;;;;;;10.23;2.83;;;-1.80;99.90;;;;;;5021421;28;20049;-45
2023/04/03 04:33:48;;;;;;;8.95;2.35;;;-1.60;99.90;;;;;;5024579;28;20262;-44
2023/04/03 04:36:14;;;;;;;10.05;2.53;;;-1.70;99.90;;;;;;5024893;28;20198;-46
2023/04/03 04:38:40;;;;;;;10.60;2.55;;;-1.80;99.90;;;;;;5024711;28;20045;-44
2023/04/03 04:41:06;;;;;;;9.52;2.53;;;-1.90;99.90;;;;;;5025573;28;20045;-44
2023/04/03 04:43:32;;;;;;;6.82;2.03;;;-1.90;99.90;;;;;;5024036;28;20079;-44
2023/04/03 04:46:09;;;;;;;7.68;2.25;;;-1.90;99.90;;;;;;5024699;28;20041;-45
2023/04/03 04:48:35;;;;;;;6.55;2.15;;;-2.10;99.90;;;;;;5024242;28;20064;-45
2023/04/03 04:51:02;;;;;;;13.45;4.65;;;-2.00;99.90;;;;;;5025194;28;20302;-44
2023/04/03 04:53:28;;;;;;;11.75;3.25;;;-2.00;99.90;;;;;;5024284;28;20037;-45
2023/04/03 04:55:53;;;;;;;7.00;3.55;;;-2.10;99.90;;;;;;5024323;28;20035;-45
2023/04/03 04:58:19;;;;;;;10.40;3.30;;;-2.10;99.90;;;;;;5024434;28;20125;-47
2023/04/03 05:00:45;;;;;;;9.30;3.25;;;-2.10;99.90;;;;;;5018686;28;20049;-45
2023/04/03 05:03:11;;;;;;;9.55;3.38;;;-1.90;99.90;;;;;;5023100;28;20041;-44
2023/04/03 05:05:37;;;;;;;8.85;3.35;;;-2.00;99.90;;;;;;5025101;28;20809;-45
2023/04/03 05:08:04;;;;;;;15.45;3.97;;;-2.00;99.90;;;;;;5024845;28;20049;-44
2023/04/03 05:10:29;;;;;;;11.02;3.65;;;-2.00;99.90;;;;;;5024605;28;20153;-45
2023/04/03 05:12:55;;;;;;;7.05;3.60;;;-2.00;99.90;;;;;;5022423;28;20138;-44
2023/04/03 05:15:21;;;;;;;9.45;3.47;;;-1.90;99.90;;;;;;5025206;28;20037;-44
2023/04/03 05:17:46;;;;;;;10.85;3.63;;;-1.80;99.90;;;;;;5020994;28;20049;-45
2023/04/03 05:20:12;;;;;;;10.27;3.88;;;-1.50;99.90;;;;;;5024140;28;20099;-45
2023/04/03 05:22:38;;;;;;;9.32;4.25;;;-1.30;99.90;;;;;;5025346;28;20381;-45
2023/04/03 05:25:05;;;;;;;14.30;3.88;;;-1.00;99.90;;;;;;5023645;28;20099;-44
2023/04/03 05:27:31;;;;;;;14.02;4.15;;;-0.70;99.90;;;;;;5023695;28;20053;-48
2023/04/03 05:29:57;;;;;;;12.73;4.70;;;-0.20;99.90;;;;;;5024923;28;20049;-46
2023/04/03 05:32:26;;;;;;;9.93;4.07;;;0.10;99.90;;;;;;5018284;28;20088;-45
2023/04/03 05:34:52;;;;;;;8.25;4.00;;;0.70;99.90;;;;;;5025083;28;20077;-44
2023/04/03 05:37:18;;;;;;;11.70;4.18;;;1.10;99.90;;;;;;5024785;28;20123;-44
2023/04/03 05:39:43;;;;;;;9.10;4.55;;;0.90;99.90;;;;;;5023626;28;20049;-45
2023/04/03 05:42:11;;;;;;;9.27;4.05;;;1.20;99.90;;;;;;5024369;28;20053;-43
2023/04/03 05:44:37;;;;;;;10.70;3.67;;;1.40;99.90;;;;;;5024388;28;20041;-45
2023/04/03 05:47:03;;;;;;;9.95;3.10;;;1.80;99.90;;;;;;5024666;28;20474;-44
2023/04/03 05:49:29;;;;;;;6.22;2.88;;;3.10;99.90;;;;;;5024190;28;20118;-46
2023/04/03 05:51:54;;;;;;;6.85;3.03;;;2.70;99.90;;;;;;5024344;28;20475;-44
2023/04/03 05:54:28;;;;;;;5.22;2.38;;;3.10;99.90;;;;;;5022296;28;20045;-45
2023/04/03 05:56:54;;;;;;;4.93;1.98;;;2.90;99.90;;;;;;5024419;28;20461;-44
2023/04/03 05:59:20;;;;;;;5.38;2.25;;;3.50;99.90;;;;;;5024638;28;20118;-45
2023/04/03 06:01:47;;;;;;;11.50;2.45;;;4.70;99.90;;;;;;5027678;28;20601;-44
2023/04/03 06:04:13;;;;;;;7.20;2.42;;;5.90;99.90;;;;;;5028168;28;20049;-44
2023/04/03 06:06:43;;;;;;;9.07;2.05;;;6.80;99.90;;;;;;5025587;28;20041;-45
2023/04/03 06:09:09;;;;;;;7.13;1.48;;;7.70;99.90;;;;;;5027769;28;20095;-45
2023/04/03 06:11:35;;;;;;;4.72;1.60;;;8.00;99.90;;;;;;5027775;28;20136;-46
2023/04/03 06:14:01;;;;;;;7.25;2.55;;;8.50;99.90;;;;;;5024135;28;20037;-46
2023/04/03 06:16:27;;;;;;;5.30;1.67;;;9.40;99.90;;;;;;5025814;28;20091;-46
2023/04/03 06:18:52;;;;;;;5.95;1.48;;;9.40;99.90;;;;;;5026193;28;20041;-45
2023/04/03 06:21:18;;;;;;;5.72;1.20;;;8.60;99.90;;;;;;5025716;28;20054;-45
2023/04/03 06:23:43;;;;;;;5.15;2.00;;;8.90;99.90;;;;;;5027010;28;20511;-47
2023/04/03 06:26:10;;;;;;;6.60;1.42;;;9.70;99.90;;;;;;5028218;28;20084;-46
2023/04/03 06:28:35;;;;;;;3.97;1.27;;;10.50;99.10;;;;;;5027927;28;20080;-46
2023/04/03 06:31:01;;;;;;;5.38;1.80;;;10.60;97.80;;;;;;5027295;28;20148;-45
2023/04/03 06:33:27;;;;;;;5.05;1.33;;;10.90;96.90;;;;;;5027385;28;20068;-45
2023/04/03 06:35:59;;;;;;;6.63;1.55;;;10.30;96.30;;;;;;5027293;28;20103;-45
2023/04/03 06:38:25;;;;;;;;;;;10.10;96.00;;;;;;5027788;28;20475;-48
2023/04/03 06:40:51;;;;;;;3.22;1.17;;;10.10;94.50;;;;;;5027118;28;19928;-46
2023/04/03 06:43:17;;;;;;;6.45;1.65;;;10.20;94.90;;;;;;5022004;28;20898;-46
2023/04/03 06:45:43;;;;;;;5.43;1.30;;;10.60;94.10;;;;;;5027134;28;20136;-47
2023/04/03 06:48:09;;;;;;;2.63;0.82;;;10.00;94.00;;;;;;5025321;28;20053;-44
2023/04/03 06:50:34;;;;;;;4.38;1.70;;;8.50;94.30;;;;;;5027508;28;20146;-46
2023/04/03 06:53:00;;;;;;;3.53;1.00;;;7.90;95.40;;;;;;5025722;28;20060;-46
2023/04/03 06:55:26;;;;;;;3.22;1.02;;;7.50;95.70;;;;;;5025014;28;20049;-47
2023/04/03 06:57:52;;;;;;;6.78;1.70;;;5.90;96.40;;;;;;5026512;28;20045;-46
2023/04/03 07:00:18;;;;;;;2.45;1.00;;;6.60;97.90;;;;;;5025678;28;20863;-44
2023/04/03 07:02:44;;;;;;;8.38;2.50;;;4.80;98.50;;;;;;5026446;28;20056;-47
2023/04/03 07:05:10;;;;;;;5.78;1.50;;;4.50;99.30;;;;;;5027561;28;20672;-47
2023/04/03 07:07:35;;;;;;;4.40;1.17;;;4.20;99.90;;;;;;5027355;28;20045;-45
2023/04/03 07:10:02;;;;;;;6.60;1.60;;;4.10;99.90;;;;;;5026926;28;20041;-45
2023/04/03 07:12:27;;;;;;;4.85;0.95;;;4.20;99.90;;;;;;5024015;28;20053;-45
2023/04/03 07:14:53;;;;;;;7.88;1.25;;;3.90;99.90;;;;;;5021286;28;20697;-45
2023/04/03 07:17:19;;;;;;;5.15;2.10;;;3.60;99.90;;;;;;5026393;28;20048;-45
2023/04/03 07:19:45;;;;;;;3.28;0.60;;;3.70;99.90;;;;;;5026506;28;20049;-46
2023/04/03 07:22:11;;;;;;;3.50;1.17;;;3.70;99.90;;;;;;5026202;28;20056;-45
2023/04/03 07:24:37;;;;;;;4.65;0.90;;;3.50;99.90;;;;;;5024689;28;20057;-45
2023/04/03 07:27:03;;;;;;;5.95;0.98;;;3.20;99.90;;;;;;5025204;28;20364;-47
2023/04/03 07:29:28;;;;;;;5.00;1.02;;;3.30;99.90;;;;;;5025251;28;20092;-45
2023/04/03 07:31:55;;;;;;;3.90;1.08;;;3.40;99.90;;;;;;5024465;28;20442;-45
2023/04/03 07:34:21;;;;;;;5.25;1.02;;;3.40;99.90;;;;;;5024866;28;20668;-46
2023/04/03 07:36:47;;;;;;;5.35;1.00;;;3.50;99.90;;;;;;5025333;28;20033;-45
2023/04/03 07:39:12;;;;;;;7.60;0.85;;;3.60;99.90;;;;;;5024054;28;20056;-46
2023/04/03 07:41:38;;;;;;;5.82;0.80;;;3.50;99.90;;;;;;5022476;28;20107;-46
2023/04/03 07:44:05;;;;;;;5.40;0.70;;;3.50;99.90;;;;;;5025120;28;20078;-46
2023/04/03 07:46:31;;;;;;;3.30;0.80;;;3.70;99.90;;;;;;5022583;28;20106;-45
2023/04/03 07:48:57;;;;;;;11.38;1.10;;;3.70;99.90;;;;;;5023855;28;20033;-45
2023/04/03 07:51:24;;;;;;;4.15;0.80;;;3.90;99.90;;;;;;5025261;28;20475;-48
2023/04/03 07:53:50;;;;;;;2.25;0.73;;;4.50;99.90;;;;;;5024667;28;20053;-46
2023/04/03 07:56:17;;;;;;;4.13;0.77;;;3.10;99.90;;;;;;5018461;28;20639;-45
2023/04/03 07:58:42;;;;;;;3.42;0.55;;;6.20;99.90;;;;;;5022786;28;20076;-45
2023/04/03 08:01:08;;;;;;;5.35;0.80;;;6.00;99.90;;;;;;5018413;28;20091;-46
2023/04/03 08:03:34;;;;;;;3.92;0.80;;;5.80;99.90;;;;;;5017215;28;20033;-45
2023/04/03 08:06:05;;;;;;;5.03;0.80;;;6.30;99.40;;;;;;5024791;28;20394;-47
2023/04/03 08:08:32;;;;;;;6.45;1.05;;;5.90;98.10;;;;;;5024358;28;20051;-46
2023/04/03 08:11:00;;;;;;;4.10;0.63;;;6.00;98.60;;;;;;5024014;28;20057;-46
2023/04/03 08:13:26;;;;;;;4.38;0.80;;;5.70;97.30;;;;;;5023891;28;20052;-46
2023/04/03 08:15:52;;;;;;;3.72;0.50;;;6.70;97.80;;;;;;5024489;28;20045;-46
2023/04/03 08:18:21;;;;;;;4.60;0.70;;;6.80;97.50;;;;;;5022186;28;20407;-47
2023/04/03 08:20:47;;;;;;;3.55;0.60;;;6.90;97.30;;;;;;5024613;28;20128;-49
2023/04/03 08:23:13;;;;;;;2.90;0.57;;;6.20;96.50;;;;;;5019293;28;20183;-46
2023/04/03 08:25:44;;;;;;;3.05;0.65;;;8.10;96.40;;;;;;5017678;28;20811;-44
2023/04/03 08:28:11;;;;;;;2.15;0.30;;;8.30;96.00;;;;;;5019703;28;20124;-46
2023/04/03 08:30:46;;;;;;;2.28;0.30;;;10.20;94.30;;;;;;5023614;28;20492;-45
2023/04/03 08:33:12;;;;;;;3.58;0.43;;;11.70;92.20;;;;;;5024354;28;20072;-44
2023/04/03 08:35:40;;;;;;;1.60;0.30;;;13.10;88.80;;;;;;5025419;28;20863;-48
2023/04/03 08:38:06;;;;;;;5.43;0.68;;;14.10;83.00;;;;;;5022226;28;20044;-46
2023/04/03 08:40:32;;;;;;;3.88;0.65;;;14.80;79.50;;;;;;5022520;28;20918;-49
2023/04/03 08:43:04;;;;;;;5.72;0.70;;;15.10;80.90;;;;;;5019648;28;20045;-60
2023/04/03 08:45:48;;;;;;;2.05;0.35;;;14.90;79.40;;;;;;4962984;28;20053;-56
2023/04/03 08:48:22;;;;;;;2.50;0.65;;;16.00;73.30;;;;;;4997550;28;20894;-56
2023/04/03 08:50:59;;;;;;;4.20;0.82;;;16.20;70.80;;;;;;5015575;28;20442;-61
2023/04/03 08:53:32;;;;;;;2.60;0.50;;;16.60;66.00;;;;;;4983485;28;20144;-58
2023/04/03 08:56:20;;;;;;;2.63;0.65;;;17.10;66.50;;;;;;4969247;28;20033;-57
2023/04/03 08:58:55;;;;;;;2.97;0.52;;;17.60;63.50;;;;;;4971908;28;20046;-59
2023/04/03 09:01:33;;;;;;;3.10;0.60;;;17.50;63.00;;;;;;4957717;28;21824;-49
2023/04/03 09:04:00;;;;;;;3.50;0.57;;;16.80;63.20;;;;;;4977046;28;20584;-57
2023/04/03 09:06:34;;;;;;;3.80;0.43;;;15.90;65.20;;;;;;4961643;28;20935;-53
2023/04/03 09:09:15;;;;;;;3.20;0.38;;;15.10;64.80;;;;;;4966312;28;20699;-52
2023/04/03 09:12:04;;;;;;;1.80;0.30;;;15.30;65.30;;;;;;4963202;28;20629;-58
2023/04/03 09:14:56;;;;;;;2.88;0.43;;;15.70;65.10;;;;;;4964364;28;20072;-58
2023/04/03 09:17:31;;;;;;;2.10;0.23;;;14.80;63.90;;;;;;4952778;28;20049;-59
2023/04/03 09:20:23;;;;;;;1.80;0.30;;;13.90;65.90;;;;;;4962350;28;20041;-56
2023/04/03 09:22:52;;;;;;;3.00;0.20;;;14.50;65.20;;;;;;4960475;28;20053;-53
2023/04/03 09:25:32;;;;;;;3.97;0.65;;;16.00;70.10;;;;;;4963791;28;20050;-62
2023/04/03 09:27:59;;;;;;;2.33;0.30;;;16.80;66.00;;;;;;4969432;28;20033;-56
2023/04/03 09:30:27;;;;;;;2.97;0.40;;;17.10;64.90;;;;;;4986571;28;20130;-62
2023/04/03 09:32:55;;;;;;;4.00;0.35;;;17.10;60.30;;;;;;4991128;28;20045;-57
2023/04/03 09:35:34;;;;;;;2.95;0.30;;;17.40;60.40;;;;;;4982345;28;20045;-64
2023/04/03 09:38:11;;;;;;;2.45;0.40;;;17.70;61.20;;;;;;4971241;28;20120;-60
2023/04/03 09:41:04;;;;;;;3.55;0.45;;;17.50;61.70;;;;;;5006237;28;20048;-57
2023/04/03 09:43:32;;;;;;;1.58;0.30;;;16.90;62.30;;;;;;4964430;28;20182;-59
2023/04/03 09:46:30;;;;;;;2.95;0.52;;;17.00;63.90;;;;;;4983715;28;21215;-58
2023/04/03 09:49:03;;;;;;;1.42;0.20;;;17.10;56.60;;;;;;5000889;28;20033;-56
2023/04/03 09:51:30;;;;;;;4.53;0.40;;;17.10;55.50;;;;;;4984201;28;20153;-56
2023/04/03 09:53:57;;;;;;;2.28;0.40;;;16.80;57.60;;;;;;4961473;28;20589;-56
2023/04/03 09:56:26;;;;;;;1.92;0.40;;;16.80;65.50;;;;;;4985040;28;20124;-52
2023/04/03 09:59:04;;;;;;;2.03;0.30;;;16.30;57.30;;;;;;4997327;28;22942;-54
2023/04/03 10:01:38;;;;;;;1.70;0.43;;;15.40;56.60;;;;;;4982012;28;20055;-55
2023/04/03 10:04:22;;;;;;;2.92;0.20;;;14.60;58.90;;;;;;4988293;28;20447;-58
2023/04/03 10:06:57;;;;;;;2.80;0.47;;;14.60;59.70;;;;;;4996754;28;20083;-58
2023/04/03 10:09:32;;;;;;;1.00;0.17;;;15.10;58.60;;;;;;4992519;28;20609;-59
2023/04/03 10:12:05;;;;;;;3.05;0.47;;;15.60;59.10;;;;;;4995067;28;20133;-56
2023/04/03 10:15:07;;;;;;;3.67;0.22;;;15.80;57.80;;;;;;4987240;28;20092;-51
2023/04/03 10:18:03;;;;;;;1.30;0.20;;;16.00;58.30;;;;;;4992139;28;20144;-51
2023/04/03 10:20:54;;;;;;;1.05;0.10;;;16.40;57.00;;;;;;4994112;28;20586;-49
2023/04/03 10:23:44;;;;;;;2.17;0.30;;;16.70;54.30;;;;;;5006680;28;20038;-50
2023/04/03 10:26:34;;;;;;;1.25;0.40;;;17.10;53.80;;;;;;5010178;28;20041;-57
2023/04/03 10:29:06;;;;;;;2.25;0.30;;;17.10;55.00;;;;;;4990000;28;20134;-49
2023/04/03 10:32:05;;;;;;;2.05;0.40;;;16.40;54.60;;;;;;4988029;28;20053;-53
2023/04/03 10:34:43;;;;;;;1.67;0.20;;;16.10;55.60;;;;;;4949309;28;20464;-52
2023/04/03 10:37:36;;;;;;;1.48;0.20;;;15.90;55.90;;;;;;4987720;28;20053;-50
2023/04/03 10:40:22;;;;;;;1.83;0.25;;;16.10;54.90;;;;;;5010397;28;20060;-52
2023/04/03 10:43:01;;;;;;;0.95;0.20;;;15.90;56.00;;;;;;5003361;28;20044;-50
2023/04/03 10:45:51;;;;;;;2.97;0.30;;;15.40;51.80;;;;;;4961191;28;20052;-52
2023/04/03 10:48:43;;;;;;;1.27;0.45;;;14.10;50.40;;;;;;4982738;28;20041;-51
2023/04/03 10:51:21;;;;;;;2.25;0.30;;;13.10;54.70;;;;;;5007659;28;22327;-51
2023/04/03 10:54:29;;;;;;;2.00;0.30;;;12.40;56.80;;;;;;4980863;28;20045;-48
2023/04/03 10:57:01;;;;;;;2.55;0.20;;;11.70;57.10;;;;;;4954893;28;20700;-51
2023/04/03 10:59:35;;;;;;;2.60;0.20;;;11.10;57.40;;;;;;4978210;28;20047;-52
2023/04/03 11:02:24;;;;;;;1.13;0.20;;;10.60;57.00;;;;;;4979360;28;20118;-51
2023/04/03 11:04:57;;;;;;;1.52;0.25;;;9.80;59.40;;;;;;4976087;28;20038;-54
2023/04/03 11:07:43;;;;;;;1.67;0.20;;;11.80;61.20;;;;;;4982039;28;20041;-53
2023/04/03 11:10:19;;;;;;;2.33;0.20;;;9.30;59.60;;;;;;4986851;28;20183;-51
2023/04/03 11:12:54;;;;;;;2.47;0.30;;;8.80;60.10;;;;;;4970809;28;20076;-51
2023/04/03 11:15:22;;;;;;;2.22;0.30;;;8.50;62.00;;;;;;4986796;28;20037;-51
2023/04/03 11:18:03;;;;;;;3.00;0.40;;;8.80;64.50;;;;;;4989908;28;20387;-52
2023/04/03 11:20:33;;;;;;;2.05;0.30;;;8.20;64.90;;;;;;4985061;28;20045;-52
2023/04/03 11:23:25;;;;;;;2.70;0.22;;;8.50;67.60;;;;;;5004526;28;20052;-52
2023/04/03 11:26:06;;;;;;;2.83;0.40;;;8.10;66.10;;;;;;4975897;28;20061;-59
2023/04/03 11:28:33;;;;;;;0.88;0.20;;;8.00;66.60;;;;;;4965019;28;20706;-56
2023/04/03 11:31:11;;;;;;;2.97;0.30;;;8.10;67.20;;;;;;4976351;28;21054;-58
2023/04/03 11:33:42;;;;;;;4.05;0.50;;;7.70;76.90;;;;;;4978455;28;20064;-59
2023/04/03 11:36:18;;;;;;;1.92;0.40;;;7.80;65.30;;;;;;4977825;28;20049;-58
2023/04/03 11:38:46;;;;;;;1.55;0.40;;;7.60;65.80;;;;;;4962048;28;20037;-60
2023/04/03 11:41:13;;;;;;;1.88;0.40;;;7.60;65.00;;;;;;4954473;28;20049;-61
2023/04/03 11:43:55;;;;;;;2.90;0.30;;;7.80;65.70;;;;;;4938091;28;20053;-60
2023/04/03 11:46:21;;;;;;;1.77;0.30;;;7.60;66.40;;;;;;4958702;28;20069;-60
2023/04/03 11:48:49;;;;;;;2.10;0.40;;;7.70;67.10;;;;;;4973461;28;20733;-58
2023/04/03 11:51:20;;;;;;;3.17;0.20;;;7.70;66.80;;;;;;4984709;28;20045;-54
2023/04/03 11:53:46;;;;;;;3.72;0.50;;;7.80;66.40;;;;;;5001338;28;20037;-60
2023/04/03 11:56:26;;;;;;;1.95;0.50;;;7.70;67.70;;;;;;5010285;28;20403;-61
2023/04/03 11:59:10;;;;;;;1.45;0.30;;;7.80;67.50;;;;;;4985511;28;20467;-60
2023/04/03 12:01:44;;;;;;;2.78;0.30;;;7.90;70.90;;;;;;5009189;28;20049;-61
2023/04/03 12:04:15;;;;;;;11.63;2.35;;;7.70;85.80;;;;;;5016880;28;20049;-61
2023/04/03 12:06:40;;;;;;;2.80;0.55;;;7.80;70.30;;;;;;5014284;28;20686;-61
2023/04/03 12:09:34;;;;;;;4.85;0.60;;;8.00;68.70;;;;;;5028471;28;20045;-61
2023/04/03 12:12:21;;;;;;;11.55;2.42;;;8.00;66.00;;;;;;4997629;28;20502;-60
2023/04/03 12:14:47;;;;;;;3.17;0.90;;;8.00;67.80;;;;;;5016161;28;20130;-61
2023/04/03 12:17:26;;;;;;;1.25;0.30;;;7.90;77.50;;;;;;5013879;28;20509;-60
2023/04/03 12:19:52;;;;;;;2.03;0.68;;;8.00;67.90;;;;;;5015422;28;20057;-61
2023/04/03 12:22:20;;;;;;;2.15;0.32;;;8.10;67.20;;;;;;5015851;28;20116;-62
2023/04/03 12:24:52;;;;;;;1.75;0.35;;;8.20;67.10;;;;;;5014340;28;20487;-60
2023/04/03 12:27:23;;;;;;;3.42;0.30;;;8.10;68.60;;;;;;5005844;28;20579;-60
2023/04/03 12:30:03;;;;;;;2.75;0.35;;;8.30;68.70;;;;;;5014854;28;20485;-61
2023/04/03 12:33:06;;;;;;;2.58;0.20;;;8.20;67.40;;;;;;5015600;28;20690;-61
2023/04/03 12:35:58;;;;;;;3.80;0.30;;;8.20;69.90;;;;;;5019588;28;20523;-60
2023/04/03 12:38:53;;;;;;;1.33;0.20;;;8.30;69.00;;;;;;4977929;28;20037;-60
2023/04/03 12:41:25;;;;;;;2.90;0.70;;;8.30;69.00;;;;;;5004091;28;20159;-60
2023/04/03 12:44:10;;;;;;;;;;;8.60;68.50;;;;;;4992738;28;20037;-61
2023/04/03 12:46:45;;;;;;;1.10;0.30;;;8.20;66.90;;;;;;5010419;28;19916;-61
2023/04/03 12:49:22;;;;;;;2.67;0.30;;;9.00;69.20;;;;;;5007070;28;20041;-61
2023/04/03 12:51:48;;;;;;;4.97;0.35;;;8.20;68.30;;;;;;5011495;28;20521;-61
2023/04/03 12:54:39;;;;;;;3.97;0.60;;;8.10;68.40;;;;;;5001652;28;20030;-61
2023/04/03 12:57:36;;;;;;;28.48;5.97;;;8.60;67.30;;;;;;4995692;28;20045;-61
2023/04/03 13:00:27;;;;;;;19.05;3.70;;;8.10;68.80;;;;;;4996265;28;20124;-61
2023/04/03 13:02:53;;;;;;;7.60;0.93;;;8.20;68.80;;;;;;5008525;28;20844;-61
2023/04/03 13:05:21;;;;;;;4.25;0.38;;;8.50;69.00;;;;;;5007332;28;21294;-61
2023/04/03 13:08:04;;;;;;;2.83;0.88;;;8.60;69.80;;;;;;4993844;28;20047;-61